Latest Weather Observations for Gold Coast Seaway

IDQ60901

Issued at 7:01 am EST Saturday 20 December 2014 (issued every 10 minutes, with the page automatically refreshed every 10 minutes)

About weather observations | Map of Brisbane area stations | Latest observations for Brisbane area | Other Formats
Station Details ID: 040764 Name: GOLD COAST SEAWAY Lat: -27.94 Lon: 153.43 Height: 2.98 m
Data from the previous 72 hours. | See also: Recent months at Gold Coast Seaway
Date/Time
EST
Tmp

°C
App
Tmp
°C
Dew
Point
°C
Rel
Hum
%
Delta-T

°C
Wind Press
QNH
hPa
Press
MSL
hPa
Rain
since
9 am
mm
Dir
 
Spd
km/h
Gust
km/h
Spd
kts
Gust
kts
20/07:00am 25.5 23.8 18.9 67 4.2 S 26 30 14 16 1015.6 1015.6 0.2
20/06:30am 24.2 22.2 18.4 70 3.7 S 26 32 14 17 1015.2 1015.2 0.2
20/06:00am 23.2 20.8 18.3 74 3.1 S 28 33 15 18 1014.9 1014.9 0.2
20/05:30am 22.7 20.8 18.5 77 2.6 S 26 32 14 17 1014.6 1014.6 0.2
20/05:00am 22.1 20.9 17.5 75 2.8 S 20 26 11 14 1014.2 1014.2 0.2
20/04:30am 22.1 20.5 17.5 75 2.8 S 22 30 12 16 1013.9 1013.9 0.2
20/04:00am 22.1 20.9 17.5 75 2.8 S 20 28 11 15 1013.7 1013.7 0.2
20/03:30am 22.1 21.1 17.5 75 2.8 S 19 28 10 15 1013.5 1013.5 0.2
20/03:00am 22.2 20.9 17.3 74 3.0 S 20 28 11 15 1013.5 1013.5 0.2
20/02:30am 22.3 20.7 17.4 74 3.0 S 22 28 12 15 1013.3 1013.3 0.2
20/02:00am 22.4 20.4 17.3 73 3.1 S 24 35 13 19 1013.4 1013.4 0.2
20/01:30am 22.9 19.8 18.4 76 2.8 S 32 39 17 21 1013.3 1013.3 0.2
20/01:00am 23.2 19.6 18.5 75 3.0 S 35 43 19 23 1013.4 1013.4 0.2
20/12:30am 23.2 19.6 18.5 75 3.0 S 35 44 19 24 1013.7 1013.7 0.2
20/12:00am 23.2 19.1 18.3 74 3.1 S 37 44 20 24 1013.9 1013.9 0.2
 
Date/Time
EST
Tmp

°C
App
Tmp
°C
Dew
Point
°C
Rel
Hum
%
Delta-T

°C
Wind Press
QNH
hPa
Press
MSL
hPa
Rain
since
9 am
mm
Dir
 
Spd
km/h
Gust
km/h
Spd
kts
Gust
kts
19/11:30pm 23.2 19.2 18.5 75 3.0 S 37 44 20 24 1014.1 1014.1 0.2
19/11:00pm 23.4 19.2 18.9 76 2.9 S 39 46 21 25 1014.2 1014.2 0.2
19/10:30pm 23.6 20.0 19.3 77 2.7 S 37 44 20 24 1014.2 1014.2 0.2
19/10:00pm 23.8 20.1 19.9 79 2.5 SSE 39 48 21 26 1014.1 1014.1 0.2
19/09:30pm 24.2 21.1 20.5 80 2.4 SSE 37 44 20 24 1013.8 1013.8 0.2
19/09:00pm 24.4 21.7 20.5 79 2.5 SSE 35 44 19 24 1013.5 1013.5 0.2
19/08:30pm 24.8 22.7 20.9 79 2.6 SSE 33 41 18 22 1013.2 1013.2 0.2
19/08:00pm 24.9 22.6 21.2 80 2.4 SSE 35 43 19 23 1012.8 1012.8 0.2
19/07:43pm 24.7 25.0 21.6 83 2.1 SE 22 39 12 21 1012.5 1012.5 0.2
19/07:30pm 24.6 27.1 22.5 88 1.4 ESE 13 17 7 9 1012.3 1012.3 0.2
19/07:00pm 25.1 27.9 23.0 88 1.4 E 13 15 7 8 1011.8 1011.8 0.2
19/06:30pm 25.4 28.2 22.3 83 2.1 E 11 15 6 8 1011.3 1011.3 0.2
19/06:00pm 26.0 27.9 22.7 82 2.2 ENE 17 17 9 9 1010.9 1010.9 0.2
19/05:30pm 25.8 26.6 22.5 82 2.2 ENE 22 28 12 15 1010.0 1010.0 0.2
19/05:00pm 26.7 26.6 22.3 77 3.0 ENE 26 33 14 18 1009.2 1009.2 0.2
19/04:30pm 27.0 27.0 22.4 76 3.1 NNE 26 30 14 16 1008.2 1008.2 0.2
19/04:00pm 27.8 27.7 22.3 72 3.7 NNE 26 30 14 16 1007.9 1007.9 0.2
19/03:30pm 28.4 28.0 22.4 70 4.1 NNE 28 32 15 17 1007.8 1007.8 0.2
19/03:00pm 28.3 28.4 22.5 71 3.9 NE 26 30 14 16 1008.0 1008.0 0.2
19/02:30pm 28.5 28.2 22.5 70 4.1 NE 28 32 15 17 1008.4 1008.4 0.2
19/02:00pm 28.0 27.8 22.0 70 4.0 ENE 26 30 14 16 1008.6 1008.6 0.2
19/01:30pm 29.6 29.8 22.8 67 4.6 ENE 26 30 14 16 1008.8 1008.8 0.2
19/01:00pm 30.7 31.6 21.5 58 6.2 ENE 19 26 10 14 1009.1 1009.1 0.2
19/12:30pm 31.9 31.4 15.0 36 10.4 NW 11 17 6 9 1009.3 1009.3 0.2
19/12:00pm 31.0 30.6 16.2 41 9.3 NW 13 20 7 11 1009.6 1009.6 0.2
19/11:30am 30.2 29.7 15.9 42 8.9 WNW 13 19 7 10 1009.9 1009.9 0.2
19/11:00am 29.6 28.9 16.4 45 8.2 NW 15 22 8 12 1010.2 1010.2 0.2
19/10:30am 28.5 28.2 17.4 51 7.0 NW 15 19 8 10 1010.4 1010.4 0.2
19/10:00am 27.6 27.8 18.6 58 5.8 NW 15 22 8 12 1010.5 1010.5 0.2
19/09:30am 26.7 25.8 17.7 57 5.7 NW 19 26 10 14 1010.8 1010.8 0.0
19/09:00am 25.7 25.7 18.9 66 4.3 NW 17 22 9 12 1011.0 1011.0 15.2
19/08:30am 24.0 24.4 18.9 73 3.2 NW 15 19 8 10 1011.2 1011.2 15.2
19/08:00am 22.8 23.7 19.2 80 2.3 NNW 13 15 7 8 1011.3 1011.3 15.2
19/07:30am 22.4 23.7 19.2 82 2.0 NNW 11 13 6 7 1011.2 1011.2 15.2
19/07:00am 21.7 23.0 19.3 86 1.5 NW 11 13 6 7 1011.2 1011.2 15.2
19/06:30am 21.2 22.8 20.0 93 0.8 WNW 11 15 6 8 1011.1 1011.1 15.2
19/06:00am 20.9 22.5 20.7 99 0.1 NW 13 15 7 8 1010.9 1010.9 15.2
19/05:30am 21.0 22.7 21.0 100 0.0 WNW 13 15 7 8 1010.9 1010.9 15.2
19/05:00am 21.0 23.4 20.8 99 0.1 N 9 13 5 7 1010.9 1010.9 15.2
19/04:30am 20.8 23.2 20.8 100 0.0 NNW 9 13 5 7 1010.3 1010.3 15.2
19/04:00am 20.9 23.3 20.9 100 0.0 WNW 9 13 5 7 1010.6 1010.6 15.2
19/03:30am 20.5 23.0 20.3 99 0.1 WSW 7 11 4 6 1010.6 1010.6 15.2
19/03:00am 20.5 23.0 20.3 99 0.1 SW 7 9 4 5 1010.6 1010.6 15.0
19/02:30am 20.4 22.5 20.2 99 0.1 WSW 9 17 5 9 1011.2 1011.2 14.8
19/02:00am 20.7 21.6 19.2 91 0.9 WSW 13 19 7 10 1011.7 1011.7 13.8
19/01:30am 21.1 21.1 19.0 88 1.3 WSW 17 26 9 14 1011.8 1011.8 13.2
19/01:00am 22.6 24.0 22.6 100 0.0 W 19 26 10 14 1011.9 1011.9 12.4
19/12:30am 22.8 25.5 22.8 100 0.0 NW 13 17 7 9 1011.6 1011.6 11.6
19/12:00am 23.0 26.8 22.8 99 0.1 NNW 7 11 4 6 1011.5 1011.5 10.8
 
Date/Time
EST
Tmp

°C
App
Tmp
°C
Dew
Point
°C
Rel
Hum
%
Delta-T

°C
Wind Press
QNH
hPa
Press
MSL
hPa
Rain
since
9 am
mm
Dir
 
Spd
km/h
Gust
km/h
Spd
kts
Gust
kts
18/11:30pm 22.8 26.5 22.6 99 0.1 N 7 11 4 6 1011.0 1011.0 10.6
18/11:00pm 22.8 25.0 22.6 99 0.1 N 15 19 8 10 1011.1 1011.1 10.4
18/10:30pm 23.1 26.2 22.9 99 0.1 NNW 11 13 6 7 1011.0 1011.0 10.2
18/10:00pm 23.2 25.2 23.0 99 0.1 NW 17 20 9 11 1010.8 1010.8 10.2
18/09:30pm 23.4 27.0 23.1 98 0.2 N 9 11 5 6 1010.4 1010.4 10.2
18/09:00pm 23.5 27.3 22.7 95 0.5 N 7 11 4 6 1010.4 1010.4 10.0
18/08:30pm 23.5 25.9 23.0 97 0.3 NNE 15 17 8 9 1009.7 1009.7 10.0
18/08:00pm 22.9 26.8 22.6 98 0.2 N 6 7 3 4 1009.8 1009.8 10.0
18/07:30pm 22.9 25.1 21.9 94 0.7 NW 13 17 7 9 1010.0 1010.0 9.8
18/07:00pm 22.2 23.4 21.5 96 0.5 WSW 17 22 9 12 1009.9 1009.9 9.8
18/06:30pm 21.9 20.8 21.7 99 0.1 WNW 30 39 16 21 1010.8 1010.8 7.8
18/06:25pm 22.1 21.5 21.9 99 0.1 W 28 41 15 22 1011.2 1011.2 6.2
18/06:13pm 23.1 20.0 19.7 81 2.2 WSW 35 61 19 33 1009.9 1009.9 1.4
18/06:09pm 24.7 23.8 19.8 74 3.2 W 24 59 13 32 1009.0 1009.0 0.2
18/06:00pm 26.4 29.1 24.2 88 1.5 NNW 17 22 9 12 1008.5 1008.5 0.0
18/05:58pm 26.3 28.9 24.0 87 1.6 N 17 22 9 12 1008.3 1008.3 0.0
18/05:30pm 26.0 27.8 24.2 90 1.2 N 22 28 12 15 1006.3 1006.3 0.0
18/05:00pm 26.1 27.1 24.1 89 1.4 N 26 32 14 17 1006.1 1006.1 0.0
18/04:30pm 26.3 26.9 24.2 88 1.4 N 28 32 15 17 1005.8 1005.8 0.0
18/04:00pm 26.8 27.5 24.3 86 1.7 NNE 28 32 15 17 1005.7 1005.7 0.0
18/03:30pm 27.1 27.1 23.8 82 2.3 NNE 30 33 16 18 1005.5 1005.5 0.0
18/03:00pm 27.0 26.6 23.0 79 2.7 NNE 30 35 16 19 1006.2 1006.2 0.0
18/02:30pm 28.3 28.3 23.0 73 3.6 NNE 28 32 15 17 1006.3 1006.3 0.0
18/02:00pm 29.7 30.5 23.2 68 4.5 NNE 24 30 13 16 1006.6 1006.6 0.0
18/01:30pm 30.1 30.8 23.0 65 4.9 NE 24 28 13 15 1007.4 1007.4 0.0
18/01:00pm 29.8 32.0 24.2 72 3.9 NE 20 24 11 13 1008.0 1008.0 0.0
18/12:30pm 29.9 31.4 24.3 72 3.9 NE 24 28 13 15 1008.4 1008.4 0.0
18/12:00pm 29.7 31.8 24.1 72 3.9 ENE 20 26 11 14 1008.5 1008.5 0.0
18/11:30am 30.4 33.2 24.3 70 4.3 NE 17 20 9 11 1009.4 1009.4 0.0
18/11:00am 29.9 33.8 24.3 72 3.9 NE 11 13 6 7 1010.0 1010.0 0.0
18/10:30am 29.0 31.8 23.0 70 4.1 NE 13 17 7 9 1010.3 1010.3 0.0
18/10:00am 29.3 33.1 23.5 71 4.0 NNE 9 11 5 6 1010.2 1010.2 0.0
18/09:30am 28.5 31.5 23.4 74 3.5 NNE 13 15 7 8 1010.1 1010.1 0.0
18/09:00am 28.3 32.0 23.9 77 3.0 N 11 17 6 9 1010.5 1010.5 0.0
18/08:30am 26.8 29.8 22.6 78 2.8 SE 11 13 6 7 1010.6 1010.6 0.0
18/08:00am 27.3 32.3 22.5 75 3.2 CALM 0 0 0 0 1010.7 1010.7 0.0
18/07:30am 25.9 30.5 22.4 81 2.4 SE 2 6 1 3 1010.9 1010.9 0.0
18/07:00am 25.9 29.6 22.2 80 2.5 SE 6 7 3 4 1010.8 1010.8 0.0
18/06:30am 25.3 28.4 22.8 86 1.7 SE 11 17 6 9 1010.5 1010.5 0.0
18/06:00am 24.5 26.9 22.9 91 1.1 SSE 15 19 8 10 1010.1 1010.1 0.0
18/05:30am 23.9 23.8 22.9 94 0.7 SSE 28 37 15 20 1009.3 1009.3 0.0
18/05:00am 24.0 23.2 23.3 96 0.5 SSE 33 41 18 22 1009.1 1009.1 0.0
18/04:30am 24.1 21.3 23.2 95 0.6 SSE 43 52 23 28 1008.4 1008.4 0.0
18/04:00am 24.1 21.2 23.4 96 0.5 SSE 44 54 24 29 1008.9 1008.9 0.0
18/03:53am 24.1 21.7 23.2 95 0.6 SSE 41 54 22 29 1009.1 1009.1 0.0
18/03:30am 24.1 24.2 23.2 95 0.6 S 28 35 15 19 1009.2 1009.2 0.0
18/03:00am 24.2 26.4 23.3 95 0.6 S 17 19 9 10 1009.2 1009.2 0.0
18/02:30am 24.5 26.9 23.6 95 0.6 S 17 22 9 12 1009.3 1009.3 0.0
18/02:00am 24.6 25.0 23.7 95 0.6 SSE 28 32 15 17 1008.9 1008.9 0.0
18/01:30am 24.9 25.6 23.0 89 1.3 S 24 33 13 18 1009.9 1009.9 0.0
18/01:00am 24.9 26.0 23.1 90 1.2 S 22 32 12 17 1009.5 1009.5 0.0
18/12:30am 25.0 25.0 23.8 93 0.8 S 30 35 16 19 1008.8 1008.8 0.0
18/12:00am 24.9 23.9 23.7 93 0.8 SSE 35 44 19 24 1008.0 1008.0 0.0
 
Date/Time
EST
Tmp

°C
App
Tmp
°C
Dew
Point
°C
Rel
Hum
%
Delta-T

°C
Wind Press
QNH
hPa
Press
MSL
hPa
Rain
since
9 am
mm
Dir
 
Spd
km/h
Gust
km/h
Spd
kts
Gust
kts
17/11:30pm 25.0 26.5 25.0 100 0.0 SE 26 37 14 20 1007.9 1007.9 0.0
17/11:00pm 24.9 25.0 24.9 100 0.0 SSE 33 43 18 23 1008.0 1008.0 0.0
17/10:53pm 25.2 26.1 25.2 100 0.0 SSE 30 37 16 20 1008.1 1008.1 0.0
17/10:30pm 25.0 28.6 25.0 100 0.0 ESE 15 19 8 10 1008.3 1008.3 0.0
17/10:00pm 24.9 30.4 24.7 99 0.1 NNE 4 9 2 5 1007.8 1007.8 0.0
17/09:30pm 25.2 31.7 25.0 99 0.1 CALM 0 6 0 3 1007.2 1007.2 0.0
17/09:00pm 25.4 29.9 25.2 99 0.1 NNE 11 13 6 7 1006.7 1006.7 0.0
17/08:30pm 25.6 29.8 25.4 99 0.1 N 13 15 7 8 1006.4 1006.4 0.0
17/08:00pm 25.6 28.7 25.4 99 0.1 N 19 20 10 11 1006.2 1006.2 0.0
17/07:30pm 25.7 29.2 25.5 99 0.1 N 17 19 9 10 1005.6 1005.6 0.0
17/07:00pm 25.9 29.3 25.2 96 0.5 NNE 17 24 9 13 1005.2 1005.2 0.0
17/06:30pm 26.2 29.2 24.6 91 1.1 NNE 17 20 9 11 1004.8 1004.8 0.0
17/06:00pm 26.5 28.5 24.5 89 1.4 N 22 28 12 15 1004.2 1004.2 0.0
17/05:30pm 26.5 27.1 24.2 87 1.6 N 28 32 15 17 1003.7 1003.7 0.0
17/05:00pm 27.5 28.2 23.7 80 2.6 NNE 26 30 14 16 1003.5 1003.5 0.0
17/04:30pm 27.7 27.9 23.5 78 2.9 NNE 28 32 15 17 1003.4 1003.4 0.0
17/04:00pm 28.6 28.2 23.1 72 3.8 N 30 35 16 19 1002.9 1002.9 0.0
17/03:30pm 28.5 28.4 22.3 69 4.2 N 26 32 14 17 1002.8 1002.8 0.0
17/03:00pm 29.4 28.9 22.1 65 4.9 N 28 32 15 17 1003.0 1003.0 0.0
17/02:30pm 29.4 28.9 22.9 68 4.4 NNE 30 35 16 19 1003.4 1003.4 0.0
17/02:00pm 30.1 29.3 23.0 65 4.9 NNE 32 37 17 20 1003.7 1003.7 0.0
17/01:30pm 31.5 30.1 21.9 56 6.5 NNE 32 35 17 19 1003.9 1003.9 0.0
17/01:00pm 33.2 30.7 19.7 45 8.9 NNE 32 37 17 20 1004.1 1004.1 0.0
17/12:30pm 34.9 34.9 18.9 39 10.5 N 17 28 9 15 1004.2 1004.2 0.0
17/12:00pm 35.7 34.2 16.4 31 12.3 NW 19 30 10 16 1004.5 1004.5 0.0
17/11:30am 34.6 32.2 17.3 35 11.1 NW 26 32 14 17 1004.8 1004.8 0.0
17/11:00am 33.6 31.3 17.7 38 10.3 NW 26 35 14 19 1005.2 1005.2 0.0
17/10:30am 32.2 31.2 18.8 45 8.7 NW 22 33 12 18 1005.7 1005.7 0.0
17/10:00am 31.7 31.2 19.0 47 8.3 NW 20 30 11 16 1005.9 1005.9 0.0
17/09:30am 29.1 32.0 23.1 70 4.1 NNE 13 19 7 10 1006.0 1006.0 0.0
17/09:00am 28.4 31.8 23.3 74 3.5 NNE 11 15 6 8 1006.2 1006.2 0.8
17/08:30am 27.6 30.4 22.3 73 3.6 NW 11 15 6 8 1006.5 1006.5 0.8
17/08:00am 26.6 29.5 22.4 78 2.8 NW 11 15 6 8 1006.6 1006.6 0.8
17/07:30am 25.8 28.6 22.3 81 2.3 NW 11 15 6 8 1006.8 1006.8 0.8

Latest Capital City Observations: Canberra | Sydney | Melbourne | Brisbane | Adelaide | Perth | Hobart | Darwin

Other Formats:

Comma delimited format used in spreadsheet applications
http://www.bom.gov.au/fwo/IDQ60901/IDQ60901.94580.axf

JavaScript Object Notation format (JSON) in row-major order
http://www.bom.gov.au/fwo/IDQ60901/IDQ60901.94580.json